Time;durP1;ratioP1;P1;durP2;ratioP2;P2;SDS_P1;SDS_P2;PMS_P1;PMS_P2;Temp;Humidity;BMP_temperature;BMP_pressure;BME280_temperature;BME280_humidity;BME280_pressure;Samples;Min_cycle;Max_cycle;Signal;HPM_P1;HPM_P2
2022/09/03 00:01:27;;;;;;;1.20;0.80;;;15.30;96.30;;;;;;4965260;28;19949;-53
2022/09/03 00:04:10;;;;;;;0.63;0.63;;;15.30;96.20;;;;;;4968968;28;20030;-51
2022/09/03 00:06:42;;;;;;;1.95;0.63;;;15.20;96.40;;;;;;4964515;28;20074;-50
2022/09/03 00:09:21;;;;;;;1.27;0.73;;;15.10;96.50;;;;;;4962660;28;20031;-49
2022/09/03 00:11:50;;;;;;;0.70;0.70;;;15.10;96.60;;;;;;4967820;28;20059;-46
2022/09/03 00:14:34;;;;;;;1.30;0.68;;;15.10;96.80;;;;;;4980348;23;20081;-59
2022/09/03 00:17:17;;;;;;;0.45;0.45;;;15.10;96.80;;;;;;4972096;28;20011;-57
2022/09/03 00:19:54;;;;;;;1.70;0.80;;;15.00;96.80;;;;;;4969034;28;20480;-58
2022/09/03 00:22:26;;;;;;;2.80;0.75;;;15.00;96.90;;;;;;4970988;28;20113;-57
2022/09/03 00:24:52;;;;;;;0.65;0.65;;;15.00;96.90;;;;;;4951793;28;20530;-60
2022/09/03 00:27:24;;;;;;;2.25;0.68;;;14.90;97.10;;;;;;4951659;28;20043;-58
2022/09/03 00:30:00;;;;;;;2.30;0.80;;;14.90;97.10;;;;;;4953372;28;20031;-59
2022/09/03 00:32:36;;;;;;;0.70;0.50;;;14.90;97.20;;;;;;4950480;28;20042;-58
2022/09/03 00:35:06;;;;;;;0.80;0.68;;;14.90;97.30;;;;;;4951724;28;20039;-58
2022/09/03 00:37:33;;;;;;;1.30;0.60;;;14.80;97.30;;;;;;4949724;28;20123;-58
2022/09/03 00:39:59;;;;;;;0.85;0.63;;;14.80;97.40;;;;;;4950879;28;20439;-58
2022/09/03 00:42:42;;;;;;;0.88;0.63;;;14.70;97.50;;;;;;4949173;28;20111;-58
2022/09/03 00:45:28;;;;;;;0.43;0.43;;;14.80;97.60;;;;;;4952875;28;20558;-59
2022/09/03 00:48:14;;;;;;;2.10;0.70;;;14.70;97.70;;;;;;4950633;28;20034;-60
2022/09/03 00:50:55;;;;;;;1.43;0.63;;;14.70;97.70;;;;;;4953293;28;20100;-57
2022/09/03 00:53:38;;;;;;;2.00;0.55;;;14.60;97.80;;;;;;4951958;28;20341;-58
2022/09/03 00:56:17;;;;;;;0.50;0.50;;;14.60;97.90;;;;;;4948083;28;20035;-60
2022/09/03 00:59:25;;;;;;;0.70;0.70;;;14.60;98.00;;;;;;4950318;28;20403;-59
2022/09/03 01:02:05;;;;;;;0.82;0.60;;;14.50;98.10;;;;;;4947268;28;20035;-59
2022/09/03 01:04:48;;;;;;;0.93;0.73;;;14.50;98.20;;;;;;4950913;28;20031;-58
2022/09/03 01:07:33;;;;;;;1.10;0.73;;;14.50;98.20;;;;;;4943783;28;20022;-57
2022/09/03 01:10:10;;;;;;;0.93;0.90;;;14.50;98.30;;;;;;4949713;28;20023;-58
2022/09/03 01:13:02;;;;;;;1.13;0.75;;;14.40;98.40;;;;;;4948107;28;20392;-59
2022/09/03 01:15:54;;;;;;;1.23;0.65;;;14.40;98.40;;;;;;4925367;28;20035;-59
2022/09/03 01:18:33;;;;;;;0.80;0.55;;;14.40;98.50;;;;;;4945747;28;20019;-59
2022/09/03 01:21:55;;;;;;;0.88;0.50;;;14.40;98.50;;;;;;4949323;28;20040;-58
2022/09/03 01:24:33;;;;;;;1.45;0.82;;;14.40;98.60;;;;;;4925417;28;20036;-60
2022/09/03 01:27:07;;;;;;;0.70;0.65;;;14.40;98.60;;;;;;4950478;28;20476;-57
2022/09/03 01:29:36;;;;;;;0.90;0.50;;;14.40;98.60;;;;;;4947694;28;20113;-59
2022/09/03 01:32:18;;;;;;;0.85;0.68;;;14.40;98.50;;;;;;4949862;28;20657;-59
2022/09/03 01:35:15;;;;;;;0.95;0.68;;;14.40;98.50;;;;;;4952616;28;20054;-58
2022/09/03 01:37:59;;;;;;;0.80;0.80;;;14.40;98.50;;;;;;4948363;28;20026;-58
2022/09/03 01:40:43;;;;;;;1.70;0.95;;;14.40;98.50;;;;;;4946183;28;20027;-60
2022/09/03 01:43:18;;;;;;;0.90;0.70;;;14.40;98.60;;;;;;4945824;28;20034;-60
2022/09/03 01:45:52;;;;;;;1.00;0.80;;;14.40;98.30;;;;;;4952356;28;20102;-61
2022/09/03 01:48:40;;;;;;;0.50;0.50;;;14.40;98.40;;;;;;4938719;28;20081;-59
2022/09/03 01:51:14;;;;;;;2.05;0.70;;;14.40;98.40;;;;;;4951969;28;20023;-59
2022/09/03 01:53:58;;;;;;;0.93;0.77;;;14.40;98.40;;;;;;4948529;28;20400;-60
2022/09/03 01:56:42;;;;;;;2.28;0.77;;;14.50;98.40;;;;;;4945436;28;20019;-61
2022/09/03 01:59:14;;;;;;;1.58;0.60;;;14.40;98.30;;;;;;4946697;28;20436;-61
2022/09/03 02:01:47;;;;;;;3.63;0.80;;;14.40;98.30;;;;;;4948950;28;20484;-60
2022/09/03 02:04:17;;;;;;;0.45;0.45;;;14.40;98.30;;;;;;4951208;28;20423;-60
2022/09/03 02:06:45;;;;;;;0.63;0.63;;;14.40;98.30;;;;;;4948396;28;20102;-59
2022/09/03 02:09:10;;;;;;;0.90;0.80;;;14.40;98.10;;;;;;4950946;28;20042;-59
2022/09/03 02:11:36;;;;;;;1.75;0.88;;;14.40;98.10;;;;;;4947447;28;20396;-61
2022/09/03 02:14:03;;;;;;;1.23;0.75;;;14.40;98.20;;;;;;4949392;28;20041;-59
2022/09/03 02:16:33;;;;;;;1.55;0.60;;;14.40;98.10;;;;;;4946609;28;20019;-59
2022/09/03 02:19:10;;;;;;;1.27;1.05;;;14.40;98.10;;;;;;4948468;28;20126;-60
2022/09/03 02:21:38;;;;;;;2.72;0.95;;;14.30;98.10;;;;;;4951469;28;20027;-59
2022/09/03 02:24:06;;;;;;;1.40;0.88;;;14.30;98.20;;;;;;4946247;28;20390;-57
2022/09/03 02:26:32;;;;;;;1.08;0.60;;;14.30;98.20;;;;;;4952025;28;20035;-60
2022/09/03 02:28:59;;;;;;;0.70;0.50;;;14.30;98.40;;;;;;4945875;28;20400;-59
2022/09/03 02:31:26;;;;;;;0.60;0.60;;;14.30;98.30;;;;;;4949247;28;20015;-59
2022/09/03 02:33:52;;;;;;;1.08;0.98;;;14.20;98.30;;;;;;4951240;28;20030;-59
2022/09/03 02:36:24;;;;;;;2.58;0.75;;;14.20;98.30;;;;;;4951571;28;20024;-60
2022/09/03 02:38:49;;;;;;;1.13;0.80;;;14.20;98.30;;;;;;4946235;28;20504;-59
2022/09/03 02:41:15;;;;;;;0.60;0.60;;;14.20;98.30;;;;;;4950432;28;20077;-59
2022/09/03 02:43:56;;;;;;;0.95;0.82;;;14.20;98.40;;;;;;4947193;28;20070;-59
2022/09/03 02:46:26;;;;;;;1.63;0.73;;;14.10;98.40;;;;;;4942395;28;20027;-58
2022/09/03 02:48:53;;;;;;;1.92;0.80;;;14.10;98.50;;;;;;4943589;28;20474;-58
2022/09/03 02:51:19;;;;;;;2.00;1.00;;;14.10;98.60;;;;;;4945280;28;20020;-59
2022/09/03 02:53:44;;;;;;;0.93;0.63;;;14.00;98.60;;;;;;4950174;28;20559;-60
2022/09/03 02:56:10;;;;;;;1.73;1.00;;;14.00;98.60;;;;;;4951123;28;20035;-58
2022/09/03 02:58:36;;;;;;;1.77;0.60;;;14.00;98.60;;;;;;4948193;28;20020;-60
2022/09/03 03:01:02;;;;;;;0.98;0.82;;;14.00;98.70;;;;;;4950212;28;20031;-60
2022/09/03 03:03:28;;;;;;;0.82;0.70;;;14.00;98.70;;;;;;4946859;28;20030;-59
2022/09/03 03:05:56;;;;;;;0.93;0.73;;;13.90;98.60;;;;;;4950356;28;20365;-58
2022/09/03 03:08:26;;;;;;;0.98;0.60;;;13.90;98.60;;;;;;4946137;28;20031;-59
2022/09/03 03:10:55;;;;;;;0.60;0.60;;;13.90;98.60;;;;;;4949739;28;20166;-61
2022/09/03 03:13:21;;;;;;;0.60;0.60;;;13.90;98.70;;;;;;4937839;28;20106;-59
2022/09/03 03:15:47;;;;;;;1.08;0.88;;;13.80;98.70;;;;;;4947919;28;20125;-61
2022/09/03 03:18:14;;;;;;;1.08;0.95;;;13.80;98.80;;;;;;4950001;28;20026;-59
2022/09/03 03:20:40;;;;;;;1.08;0.93;;;13.80;98.90;;;;;;4946676;28;20039;-59
2022/09/03 03:23:06;;;;;;;0.98;0.90;;;13.80;98.90;;;;;;4947389;28;20024;-61
2022/09/03 03:25:33;;;;;;;1.80;0.90;;;13.70;99.00;;;;;;4949539;28;20034;-59
2022/09/03 03:27:59;;;;;;;0.70;0.57;;;13.70;98.80;;;;;;4946484;28;20082;-59
2022/09/03 03:30:26;;;;;;;1.05;0.80;;;13.70;98.80;;;;;;4951074;28;20468;-59
2022/09/03 03:32:53;;;;;;;0.73;0.73;;;13.70;98.90;;;;;;4946005;28;20110;-61
2022/09/03 03:35:18;;;;;;;0.85;0.73;;;13.60;98.90;;;;;;4949593;28;20031;-58
2022/09/03 03:37:44;;;;;;;2.53;0.80;;;13.60;99.00;;;;;;4946030;28;20032;-59
2022/09/03 03:40:10;;;;;;;2.72;0.90;;;13.60;99.10;;;;;;4947712;28;20032;-59
2022/09/03 03:42:36;;;;;;;1.60;0.95;;;13.60;99.00;;;;;;4950654;28;20050;-61
2022/09/03 03:45:02;;;;;;;2.17;0.70;;;13.60;99.20;;;;;;4944813;28;20499;-59
2022/09/03 03:47:29;;;;;;;0.77;0.77;;;13.60;99.10;;;;;;4950927;28;20025;-59
2022/09/03 03:49:56;;;;;;;1.55;0.88;;;13.50;99.10;;;;;;4948289;28;20114;-59
2022/09/03 03:52:23;;;;;;;0.63;0.63;;;13.50;99.20;;;;;;4953651;28;20049;-60
2022/09/03 03:54:49;;;;;;;1.15;1.05;;;13.50;99.30;;;;;;4949240;28;20035;-59
2022/09/03 03:57:15;;;;;;;2.08;0.65;;;13.50;99.30;;;;;;4949358;28;20019;-58
2022/09/03 03:59:40;;;;;;;0.60;0.47;;;13.50;99.30;;;;;;4954159;28;20483;-58
2022/09/03 04:02:06;;;;;;;0.73;0.73;;;13.40;99.30;;;;;;4947175;28;20042;-59
2022/09/03 04:04:32;;;;;;;1.60;0.80;;;13.40;99.40;;;;;;4953922;28;20094;-59
2022/09/03 04:06:57;;;;;;;1.23;1.05;;;13.40;99.40;;;;;;4947513;28;20024;-58
2022/09/03 04:09:23;;;;;;;0.80;0.80;;;13.40;99.50;;;;;;4951686;28;20031;-60
2022/09/03 04:11:49;;;;;;;0.70;0.70;;;13.30;99.50;;;;;;4953761;28;20031;-58
2022/09/03 04:14:16;;;;;;;1.88;0.70;;;13.30;99.50;;;;;;4948395;28;20028;-61
2022/09/03 04:16:45;;;;;;;0.70;0.70;;;13.30;99.60;;;;;;4953998;28;20530;-59
2022/09/03 04:19:11;;;;;;;1.00;0.70;;;13.30;99.70;;;;;;4947164;28;20019;-57
2022/09/03 04:21:37;;;;;;;1.13;0.70;;;13.30;99.80;;;;;;4953552;28;20030;-59
2022/09/03 04:24:04;;;;;;;1.55;0.95;;;13.20;99.70;;;;;;4946059;28;20024;-59
2022/09/03 04:26:31;;;;;;;2.47;1.02;;;13.20;99.90;;;;;;4943776;28;20021;-59
2022/09/03 04:29:01;;;;;;;0.77;0.77;;;13.20;99.90;;;;;;4953003;28;20419;-61
2022/09/03 04:31:27;;;;;;;2.00;1.10;;;13.20;99.90;;;;;;4950155;28;20796;-60
2022/09/03 04:33:53;;;;;;;0.98;0.88;;;13.20;99.90;;;;;;4952785;28;20152;-61
2022/09/03 04:36:22;;;;;;;0.95;0.95;;;13.20;99.90;;;;;;4947521;28;20137;-57
2022/09/03 04:38:49;;;;;;;1.98;0.90;;;13.20;99.90;;;;;;4953564;28;20030;-59
2022/09/03 04:41:21;;;;;;;1.30;0.68;;;13.20;99.90;;;;;;4944965;28;20444;-57
2022/09/03 04:43:48;;;;;;;2.83;0.75;;;13.20;99.90;;;;;;4952727;28;20425;-60
2022/09/03 04:46:15;;;;;;;0.60;0.60;;;13.10;99.90;;;;;;4948655;28;20464;-58
2022/09/03 04:48:41;;;;;;;1.65;0.90;;;13.10;99.90;;;;;;4951461;28;20045;-60
2022/09/03 04:51:12;;;;;;;0.80;0.70;;;13.10;99.90;;;;;;4950765;28;20502;-57
2022/09/03 04:53:40;;;;;;;1.08;0.68;;;13.10;99.90;;;;;;4949358;28;20031;-58
2022/09/03 04:56:14;;;;;;;1.40;0.80;;;13.10;99.90;;;;;;4949692;28;20035;-58
2022/09/03 04:58:42;;;;;;;3.00;0.70;;;13.10;99.90;;;;;;4952024;28;20028;-59
2022/09/03 05:01:18;;;;;;;1.02;0.93;;;13.10;99.90;;;;;;4947418;28;20062;-59
2022/09/03 05:03:44;;;;;;;0.80;0.70;;;13.10;99.90;;;;;;4951248;28;20030;-59
2022/09/03 05:06:11;;;;;;;1.80;0.60;;;13.10;99.90;;;;;;4943485;28;20510;-59
2022/09/03 05:08:36;;;;;;;0.80;0.80;;;13.10;99.90;;;;;;4950270;28;20502;-58
2022/09/03 05:11:04;;;;;;;2.30;1.05;;;13.10;99.90;;;;;;4952255;28;20031;-59
2022/09/03 05:13:30;;;;;;;0.93;0.90;;;13.10;99.80;;;;;;4948746;28;20514;-58
2022/09/03 05:16:01;;;;;;;1.80;0.70;;;13.10;99.80;;;;;;4951507;28;20062;-57
2022/09/03 05:18:27;;;;;;;0.73;0.50;;;13.20;99.70;;;;;;4948524;28;20034;-59
2022/09/03 05:21:07;;;;;;;1.08;0.60;;;13.20;99.70;;;;;;4949367;28;20110;-59
2022/09/03 05:23:38;;;;;;;1.58;0.73;;;13.20;99.50;;;;;;4946865;28;20082;-59
2022/09/03 05:26:07;;;;;;;1.98;0.88;;;13.20;99.60;;;;;;4948945;28;20027;-59
2022/09/03 05:28:35;;;;;;;1.15;0.65;;;13.20;99.60;;;;;;4952671;28;20147;-59
2022/09/03 05:31:09;;;;;;;1.08;0.55;;;13.20;99.50;;;;;;4947470;28;20030;-59
2022/09/03 05:33:42;;;;;;;0.70;0.63;;;13.20;99.50;;;;;;4952948;28;20090;-58
2022/09/03 05:36:11;;;;;;;1.13;0.88;;;13.30;99.40;;;;;;4946172;28;20035;-58
2022/09/03 05:38:37;;;;;;;1.85;0.57;;;13.30;99.40;;;;;;4952692;28;20046;-59
2022/09/03 05:41:06;;;;;;;1.40;1.17;;;13.30;99.50;;;;;;4945171;28;20034;-59
2022/09/03 05:43:33;;;;;;;1.20;0.70;;;13.30;99.40;;;;;;4950960;28;20023;-59
2022/09/03 05:46:00;;;;;;;1.08;0.90;;;13.40;99.30;;;;;;4951098;28;20039;-60
2022/09/03 05:48:27;;;;;;;0.70;0.63;;;13.40;99.40;;;;;;4948893;28;20020;-58
2022/09/03 05:51:03;;;;;;;1.48;0.75;;;13.40;99.50;;;;;;4951633;28;20037;-59
2022/09/03 05:53:30;;;;;;;1.58;1.00;;;13.50;99.30;;;;;;4939974;28;20637;-59
2022/09/03 05:56:00;;;;;;;1.10;0.73;;;13.50;99.60;;;;;;4958962;28;20062;-59
2022/09/03 05:58:31;;;;;;;1.50;0.77;;;13.50;99.60;;;;;;4951064;28;20019;-59
2022/09/03 06:00:56;;;;;;;1.38;0.95;;;13.50;99.50;;;;;;4947648;28;20023;-60
2022/09/03 06:03:22;;;;;;;3.05;0.90;;;13.60;99.40;;;;;;4949969;28;20027;-60
2022/09/03 06:05:53;;;;;;;0.95;0.70;;;13.60;99.30;;;;;;4946192;28;20027;-59
2022/09/03 06:08:19;;;;;;;2.85;0.82;;;13.70;99.40;;;;;;4945023;28;20019;-59
2022/09/03 06:10:45;;;;;;;1.00;0.90;;;13.70;99.30;;;;;;4951785;28;20051;-61
2022/09/03 06:13:11;;;;;;;0.90;0.80;;;13.70;99.20;;;;;;4947784;28;20640;-60
2022/09/03 06:15:37;;;;;;;0.95;0.73;;;13.80;99.20;;;;;;4950986;28;20034;-60
2022/09/03 06:18:03;;;;;;;1.70;0.80;;;13.80;99.10;;;;;;4947302;28;20110;-59
2022/09/03 06:20:28;;;;;;;0.75;0.70;;;13.90;99.20;;;;;;4949679;28;20511;-59
2022/09/03 06:22:54;;;;;;;0.80;0.47;;;14.00;99.20;;;;;;4945873;28;20023;-59
2022/09/03 06:25:20;;;;;;;0.95;0.93;;;14.00;99.00;;;;;;4949033;28;20510;-58
2022/09/03 06:27:46;;;;;;;0.60;0.60;;;14.10;98.90;;;;;;4943928;28;20028;-59
2022/09/03 06:30:12;;;;;;;1.13;0.77;;;14.20;98.60;;;;;;4948009;28;20051;-57
2022/09/03 06:32:45;;;;;;;1.10;0.70;;;14.20;98.80;;;;;;4950164;28;20086;-56
2022/09/03 06:35:11;;;;;;;1.02;0.85;;;14.30;98.80;;;;;;4946607;28;20102;-59
2022/09/03 06:37:40;;;;;;;1.48;1.15;;;14.40;98.40;;;;;;4949796;28;20038;-58
2022/09/03 06:40:11;;;;;;;3.50;0.95;;;14.40;98.40;;;;;;4946291;28;20034;-59
2022/09/03 06:42:37;;;;;;;0.93;0.73;;;14.50;98.30;;;;;;4948475;28;20102;-59
2022/09/03 06:45:05;;;;;;;1.13;0.82;;;14.60;98.20;;;;;;4950954;28;20027;-59
2022/09/03 06:47:32;;;;;;;2.05;0.60;;;14.70;98.30;;;;;;4948028;28;20098;-58
2022/09/03 06:49:59;;;;;;;2.97;0.68;;;14.80;98.00;;;;;;4950020;28;20023;-58
2022/09/03 06:52:25;;;;;;;1.00;0.90;;;14.90;97.90;;;;;;4946605;28;20098;-58
2022/09/03 06:54:50;;;;;;;1.15;0.70;;;15.00;97.90;;;;;;4948853;28;20066;-59
2022/09/03 06:57:16;;;;;;;1.88;0.85;;;15.10;97.30;;;;;;4946778;28;20107;-58
2022/09/03 06:59:42;;;;;;;1.48;0.90;;;15.20;97.20;;;;;;4951245;28;20460;-57
2022/09/03 07:02:08;;;;;;;0.75;0.63;;;15.30;97.30;;;;;;4944123;28;20031;-58
2022/09/03 07:04:34;;;;;;;2.17;0.77;;;15.30;97.40;;;;;;4951112;28;20081;-58
2022/09/03 07:07:00;;;;;;;0.85;0.73;;;15.50;96.90;;;;;;4944310;28;20117;-58
2022/09/03 07:09:25;;;;;;;2.92;0.88;;;15.60;97.20;;;;;;4949304;28;20032;-58
2022/09/03 07:11:51;;;;;;;1.50;0.80;;;15.70;96.70;;;;;;4951804;28;20031;-59
2022/09/03 07:14:18;;;;;;;1.88;0.95;;;15.80;96.70;;;;;;4946029;28;20059;-59
2022/09/03 07:16:45;;;;;;;1.77;1.00;;;16.00;96.00;;;;;;4951062;28;20020;-58
2022/09/03 07:19:12;;;;;;;4.10;1.23;;;16.20;95.90;;;;;;4944548;28;20019;-59
2022/09/03 07:21:41;;;;;;;1.17;0.70;;;16.40;96.00;;;;;;4950846;28;20025;-57
2022/09/03 07:24:08;;;;;;;1.50;0.98;;;16.50;95.70;;;;;;4937204;28;20054;-59
2022/09/03 07:26:36;;;;;;;1.45;0.75;;;16.70;95.60;;;;;;4953899;28;20074;-58
2022/09/03 07:29:03;;;;;;;0.65;0.65;;;16.90;95.40;;;;;;4952847;28;20034;-55
2022/09/03 07:31:35;;;;;;;0.80;0.70;;;17.10;95.10;;;;;;4952133;28;20043;-59
2022/09/03 07:34:04;;;;;;;2.00;0.68;;;17.30;94.60;;;;;;4952674;28;20034;-58
2022/09/03 07:36:34;;;;;;;1.38;0.63;;;17.40;94.10;;;;;;4949724;28;20023;-59
2022/09/03 07:39:00;;;;;;;2.17;0.75;;;17.60;94.20;;;;;;4953105;28;20444;-59
2022/09/03 07:41:26;;;;;;;1.05;0.77;;;17.80;93.70;;;;;;4947361;28;20087;-58
2022/09/03 07:43:53;;;;;;;0.68;0.60;;;18.00;93.90;;;;;;4953622;28;20031;-57
2022/09/03 07:46:24;;;;;;;0.80;0.80;;;18.20;93.80;;;;;;4950491;28;20508;-58
2022/09/03 07:48:51;;;;;;;1.08;0.70;;;18.30;93.60;;;;;;4952915;28;20031;-57
2022/09/03 07:51:18;;;;;;;1.48;0.77;;;18.50;93.20;;;;;;4950192;28;20441;-58
2022/09/03 07:53:45;;;;;;;3.38;1.10;;;18.70;92.30;;;;;;4951272;28;20038;-59
2022/09/03 07:56:11;;;;;;;1.92;0.90;;;18.80;92.50;;;;;;4950676;28;20110;-57
2022/09/03 07:58:38;;;;;;;5.55;0.98;;;18.90;92.00;;;;;;4952961;28;20131;-56
2022/09/03 08:01:11;;;;;;;2.47;0.90;;;19.00;91.80;;;;;;4949388;28;20628;-58
2022/09/03 08:03:41;;;;;;;1.80;0.80;;;19.00;91.70;;;;;;4951837;28;20101;-60
2022/09/03 08:06:07;;;;;;;0.95;0.95;;;19.10;92.00;;;;;;4947820;28;20401;-58
2022/09/03 08:08:38;;;;;;;1.40;0.90;;;19.30;92.10;;;;;;4951295;28;20019;-58
2022/09/03 08:11:09;;;;;;;4.07;1.00;;;19.50;91.30;;;;;;4953067;28;20026;-59
2022/09/03 08:13:39;;;;;;;1.15;0.63;;;19.50;91.10;;;;;;4949620;28;20023;-59
2022/09/03 08:16:05;;;;;;;0.93;0.80;;;19.60;90.90;;;;;;4952302;28;20019;-59
2022/09/03 08:18:36;;;;;;;0.98;0.88;;;19.70;91.40;;;;;;4949377;28;20404;-57
2022/09/03 08:21:03;;;;;;;3.80;1.20;;;19.90;90.60;;;;;;4951591;28;20058;-54
2022/09/03 08:23:28;;;;;;;1.77;1.08;;;20.00;90.40;;;;;;4948013;28;20366;-58
2022/09/03 08:25:59;;;;;;;1.15;0.80;;;20.10;90.30;;;;;;4950072;28;20027;-59
2022/09/03 08:28:25;;;;;;;0.75;0.70;;;20.10;90.20;;;;;;4953760;28;20534;-59
2022/09/03 08:30:50;;;;;;;2.05;0.77;;;20.20;90.50;;;;;;4949931;28;20027;-56
2022/09/03 08:33:16;;;;;;;1.40;0.73;;;20.30;90.20;;;;;;4952244;28;20026;-58
2022/09/03 08:35:41;;;;;;;1.75;0.80;;;20.30;90.10;;;;;;4947839;28;20027;-58
2022/09/03 08:38:07;;;;;;;3.25;1.00;;;20.40;89.60;;;;;;4951161;28;20166;-55
2022/09/03 08:40:36;;;;;;;2.67;1.00;;;20.50;90.20;;;;;;4948031;28;20019;-58
2022/09/03 08:43:16;;;;;;;2.30;0.93;;;20.60;89.70;;;;;;4949308;28;20403;-58
2022/09/03 08:45:42;;;;;;;1.55;0.95;;;20.70;89.70;;;;;;4952147;28;20016;-60
2022/09/03 08:48:19;;;;;;;3.13;0.90;;;20.90;90.10;;;;;;4951777;28;20034;-57
2022/09/03 08:50:50;;;;;;;1.42;1.10;;;20.70;87.60;;;;;;4949886;28;20016;-58
2022/09/03 08:53:27;;;;;;;2.92;1.08;;;20.60;87.80;;;;;;4945486;28;20351;-61
2022/09/03 08:56:23;;;;;;;3.70;0.80;;;20.60;89.20;;;;;;4951164;28;20027;-54
2022/09/03 08:58:48;;;;;;;3.08;0.88;;;20.80;88.40;;;;;;4950240;28;20034;-58
2022/09/03 09:01:30;;;;;;;1.02;0.82;;;20.90;88.60;;;;;;4945195;28;20190;-58
2022/09/03 09:04:24;;;;;;;0.73;0.70;;;20.80;87.40;;;;;;4948209;28;20392;-59
2022/09/03 09:07:09;;;;;;;1.40;1.00;;;20.70;88.00;;;;;;4949997;28;20527;-58
2022/09/03 09:09:59;;;;;;;1.23;0.93;;;20.50;88.20;;;;;;4948048;28;20090;-58
2022/09/03 09:12:39;;;;;;;3.75;0.93;;;20.30;88.00;;;;;;4949111;28;20024;-58
2022/09/03 09:15:31;;;;;;;1.55;1.00;;;20.20;88.90;;;;;;4950289;28;20031;-54
2022/09/03 09:18:18;;;;;;;0.90;0.73;;;20.00;88.80;;;;;;4929325;28;20587;-57
2022/09/03 09:20:56;;;;;;;1.52;1.30;;;19.80;88.70;;;;;;4947475;28;20035;-57
2022/09/03 09:23:24;;;;;;;4.05;1.20;;;19.70;89.50;;;;;;4950959;28;20039;-60
2022/09/03 09:25:52;;;;;;;2.28;0.80;;;19.60;90.10;;;;;;4951378;28;20043;-58
2022/09/03 09:28:21;;;;;;;1.98;0.93;;;19.60;89.50;;;;;;4948619;28;20011;-54
2022/09/03 09:30:48;;;;;;;1.05;0.90;;;19.60;89.20;;;;;;4950856;28;20019;-58
2022/09/03 09:33:15;;;;;;;1.88;0.80;;;19.50;89.70;;;;;;4944442;28;20563;-57
2022/09/03 09:35:42;;;;;;;1.35;0.90;;;19.50;90.30;;;;;;4949977;28;20059;-56
2022/09/03 09:38:09;;;;;;;1.50;1.08;;;19.60;90.40;;;;;;4952342;28;20086;-55
2022/09/03 09:40:41;;;;;;;0.70;0.70;;;19.80;89.30;;;;;;4950144;28;20023;-58
2022/09/03 09:43:15;;;;;;;1.73;0.70;;;19.90;89.20;;;;;;4951116;28;20510;-59
2022/09/03 09:45:45;;;;;;;1.25;0.90;;;20.00;88.90;;;;;;4948148;28;20102;-60
2022/09/03 09:48:36;;;;;;;1.42;0.80;;;20.20;89.20;;;;;;4950070;28;20033;-59
2022/09/03 09:51:05;;;;;;;0.82;0.60;;;20.30;88.50;;;;;;4945477;28;20215;-58
2022/09/03 09:53:31;;;;;;;1.35;0.75;;;20.30;88.40;;;;;;4951282;28;20019;-57
2022/09/03 09:55:57;;;;;;;1.35;0.90;;;20.50;88.80;;;;;;4950891;28;20090;-58
2022/09/03 09:58:29;;;;;;;1.17;0.90;;;20.50;87.00;;;;;;4946730;28;20051;-57
2022/09/03 10:01:22;;;;;;;1.05;0.60;;;20.60;86.50;;;;;;4951204;28;20051;-57
2022/09/03 10:03:53;;;;;;;1.15;0.80;;;20.60;85.10;;;;;;4946625;28;20035;-59
2022/09/03 10:09:19;;;;;;;1.58;0.95;;;20.60;85.20;;;;;;4947671;28;20039;-55
2022/09/03 10:11:50;;;;;;;1.55;0.60;;;20.70;85.00;;;;;;4950270;28;20026;-57
2022/09/03 10:14:58;;;;;;;0.77;0.73;;;20.70;84.10;;;;;;4942935;28;20112;-58
2022/09/03 10:17:56;;;;;;;1.60;1.20;;;20.80;84.10;;;;;;4943903;28;20102;-58
2022/09/03 10:20:36;;;;;;;2.25;0.85;;;20.80;84.00;;;;;;4944824;28;20019;-59
2022/09/03 10:23:17;;;;;;;2.63;0.75;;;20.90;83.60;;;;;;4950573;28;20028;-53
2022/09/03 10:26:13;;;;;;;0.60;0.60;;;20.90;83.80;;;;;;4947888;28;20380;-58
2022/09/03 10:28:40;;;;;;;;;;;21.00;81.80;;;;;;4947602;28;20027;-57
2022/09/03 10:31:17;;;;;;;;;;;21.00;79.90;;;;;;4946498;28;20293;-55
2022/09/03 10:33:54;;;;;;;0.80;0.65;;;21.10;81.40;;;;;;4949532;28;20427;-57
2022/09/03 10:36:27;;;;;;;4.50;0.65;;;21.20;81.90;;;;;;4946328;28;20026;-58
2022/09/03 10:39:30;;;;;;;0.68;0.52;;;21.20;81.40;;;;;;4947941;28;20023;-58
2022/09/03 10:42:20;;;;;;;2.83;0.98;;;21.20;79.20;;;;;;4932149;28;20106;-54
2022/09/03 10:45:14;;;;;;;2.17;0.75;;;21.20;79.40;;;;;;4946640;28;20487;-55
2022/09/03 10:47:59;;;;;;;0.73;0.63;;;21.20;79.40;;;;;;4943348;28;20020;-54
2022/09/03 10:50:41;;;;;;;2.65;0.80;;;21.20;80.10;;;;;;4944209;28;20020;-59
2022/09/03 10:53:31;;;;;;;5.18;0.70;;;21.10;79.50;;;;;;4945916;28;20022;-58
2022/09/03 10:56:00;;;;;;;1.02;0.70;;;21.00;80.70;;;;;;4947656;28;20031;-54
2022/09/03 10:58:52;;;;;;;0.80;0.70;;;21.00;78.60;;;;;;4946801;28;20392;-57
2022/09/03 11:01:48;;;;;;;1.23;0.82;;;21.10;78.90;;;;;;4944444;28;20432;-58
2022/09/03 11:04:35;;;;;;;1.27;0.63;;;21.30;78.10;;;;;;4952648;28;20028;-55
2022/09/03 11:07:07;;;;;;;3.00;0.88;;;21.40;77.20;;;;;;4954633;28;20354;-53
2022/09/03 11:09:47;;;;;;;2.83;0.63;;;21.30;77.60;;;;;;4951684;28;20046;-58
2022/09/03 11:12:21;;;;;;;1.60;0.85;;;21.40;76.40;;;;;;4953470;28;20495;-58
2022/09/03 11:15:02;;;;;;;1.65;0.70;;;21.40;77.10;;;;;;4949593;28;20023;-57
2022/09/03 11:17:50;;;;;;;0.60;0.60;;;21.50;77.80;;;;;;4955667;28;20027;-58
2022/09/03 11:20:20;;;;;;;0.65;0.50;;;21.50;77.00;;;;;;4947072;28;20027;-61
2022/09/03 11:22:48;;;;;;;2.00;0.70;;;21.60;75.70;;;;;;4954163;28;20037;-54
2022/09/03 11:25:16;;;;;;;0.80;0.70;;;21.60;75.90;;;;;;4951859;28;20489;-58
2022/09/03 11:27:41;;;;;;;2.45;0.70;;;21.60;76.90;;;;;;4949708;28;20019;-56
2022/09/03 11:30:10;;;;;;;0.52;0.50;;;21.80;76.40;;;;;;4952499;28;20031;-53
2022/09/03 11:32:41;;;;;;;1.38;0.98;;;21.80;75.70;;;;;;4949552;28;20026;-53
2022/09/03 11:35:36;;;;;;;1.48;0.60;;;21.80;75.10;;;;;;4952235;28;20028;-57
2022/09/03 11:38:13;;;;;;;4.45;0.65;;;21.80;76.50;;;;;;4950416;28;20027;-51
2022/09/03 11:41:01;;;;;;;0.80;0.60;;;21.70;76.70;;;;;;4953865;28;20023;-55
2022/09/03 11:43:30;;;;;;;2.22;0.65;;;21.70;77.00;;;;;;4944286;28;20538;-58
2022/09/03 11:46:28;;;;;;;1.73;0.90;;;21.70;76.40;;;;;;4952920;28;20039;-53
2022/09/03 11:48:56;;;;;;;0.98;0.80;;;21.80;77.00;;;;;;4949280;28;20074;-58
2022/09/03 11:51:36;;;;;;;3.55;0.73;;;21.90;76.90;;;;;;4952873;28;20571;-58
2022/09/03 11:54:11;;;;;;;0.90;0.70;;;21.90;76.30;;;;;;4947133;28;20023;-57
2022/09/03 11:56:36;;;;;;;2.17;0.60;;;21.90;76.40;;;;;;4946272;28;20637;-60
2022/09/03 11:59:12;;;;;;;0.80;0.60;;;22.00;75.00;;;;;;4952417;28;20118;-61
2022/09/03 12:01:42;;;;;;;1.40;0.75;;;21.90;75.30;;;;;;4949035;28;20397;-57
2022/09/03 12:04:16;;;;;;;1.73;0.70;;;21.90;75.40;;;;;;4951524;28;20074;-57
2022/09/03 12:07:07;;;;;;;1.17;0.60;;;22.10;75.30;;;;;;4953400;28;20030;-58
2022/09/03 12:09:47;;;;;;;1.58;0.80;;;22.30;74.70;;;;;;4948336;28;20100;-58
2022/09/03 12:12:27;;;;;;;0.93;0.70;;;22.40;74.50;;;;;;4952326;28;20047;-57
2022/09/03 12:15:02;;;;;;;1.15;0.65;;;22.50;75.00;;;;;;4949776;28;20174;-53
2022/09/03 12:20:40;;;;;;;0.75;0.60;;;22.50;74.80;;;;;;4949312;28;20046;-58
2022/09/03 12:23:07;;;;;;;1.50;0.70;;;22.50;74.60;;;;;;4952514;28;20082;-55
2022/09/03 12:25:32;;;;;;;0.60;0.60;;;22.40;72.20;;;;;;4950011;28;20106;-56
2022/09/03 12:28:04;;;;;;;1.80;0.70;;;22.30;71.30;;;;;;4952526;28;20472;-59
2022/09/03 12:30:29;;;;;;;1.33;0.70;;;22.20;72.60;;;;;;4949123;28;20024;-57
2022/09/03 12:33:06;;;;;;;1.42;0.65;;;22.30;72.30;;;;;;4951119;28;20023;-57
2022/09/03 12:35:32;;;;;;;0.50;0.50;;;22.40;72.50;;;;;;4948187;28;20024;-58
2022/09/03 12:37:57;;;;;;;1.90;0.60;;;22.50;71.00;;;;;;4950972;28;20082;-60
2022/09/03 12:40:25;;;;;;;1.58;0.60;;;22.60;71.40;;;;;;4953070;28;20050;-58
2022/09/03 12:42:52;;;;;;;0.93;0.77;;;22.70;72.60;;;;;;4949468;28;20027;-58
2022/09/03 12:45:21;;;;;;;0.82;0.45;;;22.80;70.90;;;;;;4951936;28;20027;-58
2022/09/03 12:47:47;;;;;;;0.55;0.52;;;22.80;71.60;;;;;;4948653;28;20032;-59
2022/09/03 12:50:19;;;;;;;3.50;1.00;;;22.90;72.00;;;;;;4951037;28;20479;-58
2022/09/03 12:52:55;;;;;;;3.42;0.80;;;23.00;71.40;;;;;;4947471;28;20028;-58
2022/09/03 12:55:29;;;;;;;;;;;23.20;70.90;;;;;;4946687;28;20059;-57
2022/09/03 12:57:58;;;;;;;2.05;0.95;;;23.20;69.80;;;;;;4947815;28;20342;-54
2022/09/03 13:00:24;;;;;;;0.73;0.73;;;23.30;71.20;;;;;;4952188;28;20106;-58
2022/09/03 13:03:02;;;;;;;0.50;0.50;;;23.20;69.10;;;;;;4947520;28;20023;-56
2022/09/03 13:05:53;;;;;;;0.70;0.70;;;23.20;69.50;;;;;;4951360;28;20019;-56
2022/09/03 13:08:31;;;;;;;1.77;0.60;;;23.20;70.00;;;;;;4944102;28;20048;-55
2022/09/03 13:11:01;;;;;;;0.85;0.60;;;23.20;69.50;;;;;;4951824;28;20024;-54
2022/09/03 13:13:32;;;;;;;1.75;0.70;;;23.20;69.20;;;;;;4946640;28;20031;-58
2022/09/03 13:16:22;;;;;;;0.63;0.50;;;23.20;69.40;;;;;;4950896;28;20432;-57
2022/09/03 13:19:06;;;;;;;2.58;0.90;;;23.30;68.60;;;;;;4947608;28;20031;-56
2022/09/03 13:21:41;;;;;;;1.20;0.50;;;23.20;68.50;;;;;;4957841;28;20484;-57